Time;durP1;ratioP1;P1;durP2;ratioP2;P2;SDS_P1;SDS_P2;PMS_P1;PMS_P2;Temp;Humidity;BMP_temperature;BMP_pressure;BME280_temperature;BME280_humidity;BME280_pressure;Samples;Min_cycle;Max_cycle;Signal;HPM_P1;HPM_P2
2022/04/30 00:01:37;;;;;;;14.60;9.55;;;;;;;12.67;47.28;100692.16;10321903;28;20136;-76
2022/04/30 00:06:38;;;;;;;16.33;10.00;;;;;;;12.64;46.65;100691.50;10317393;28;20144;-76
2022/04/30 00:11:40;;;;;;;20.27;9.48;;;;;;;12.59;46.94;100696.16;10305227;28;20543;-76
2022/04/30 00:16:42;;;;;;;18.20;9.43;;;;;;;12.62;46.82;100694.19;10304753;28;20089;-76
2022/04/30 00:21:44;;;;;;;15.95;9.38;;;;;;;12.67;46.95;100694.78;10315325;28;20456;-76
2022/04/30 00:26:46;;;;;;;17.35;9.80;;;;;;;12.60;46.46;100701.31;10345021;28;20139;-76
2022/04/30 00:31:48;;;;;;;17.98;8.75;;;;;;;12.59;46.62;100688.28;10323768;28;20089;-76
2022/04/30 00:36:50;;;;;;;14.73;9.05;;;;;;;12.61;46.60;100692.50;10309224;28;20109;-76
2022/04/30 00:41:51;;;;;;;16.48;9.13;;;;;;;12.61;46.65;100692.50;10312509;28;20054;-76
2022/04/30 00:46:54;;;;;;;13.90;9.13;;;;;;;12.57;47.19;100685.75;10339280;28;20125;-76
2022/04/30 00:52:01;;;;;;;17.35;9.10;;;;;;;12.51;47.84;100686.09;10325544;28;20558;-76
2022/04/30 00:57:05;;;;;;;14.52;9.23;;;;;;;12.34;48.22;100680.06;10339882;28;20349;-76
2022/04/30 01:02:10;;;;;;;19.48;9.75;;;;;;;12.34;49.34;100682.69;10332410;28;20526;-76
2022/04/30 01:07:12;;;;;;;14.40;10.27;;;;;;;12.26;50.80;100682.22;10330867;28;20875;-76
2022/04/30 01:12:15;;;;;;;20.00;10.95;;;;;;;12.08;51.51;100678.84;10319114;28;20142;-76
2022/04/30 01:17:17;;;;;;;15.73;10.25;;;;;;;11.95;51.84;100675.19;10302277;28;20046;-76
2022/04/30 01:22:27;;;;;;;18.65;10.18;;;;;;;11.97;53.02;100674.16;10317751;28;20164;-76
2022/04/30 01:27:30;;;;;;;14.63;10.55;;;;;;;11.88;52.49;100666.81;10321253;28;20054;-76
2022/04/30 01:37:56;;;;;;;16.65;10.52;;;;;;;11.77;52.66;100660.44;10325787;28;20520;-76
2022/04/30 01:43:01;;;;;;;14.13;10.73;;;;;;;11.77;53.70;100656.03;10348490;28;20112;-76
2022/04/30 01:48:05;;;;;;;18.02;11.40;;;;;;;11.68;52.91;100656.53;10322223;28;20058;-76
2022/04/30 01:53:07;;;;;;;14.45;10.95;;;;;;;11.58;53.42;100644.84;10309317;28;20119;-76
2022/04/30 01:58:09;;;;;;;23.17;12.00;;;;;;;11.50;54.25;100648.81;10316524;28;20490;-76
2022/04/30 02:03:12;;;;;;;16.50;11.05;;;;;;;11.51;54.44;100645.25;10341405;28;20058;-76
2022/04/30 02:08:18;;;;;;;19.35;11.27;;;;;;;11.52;54.31;100644.34;10333197;28;20042;-76
2022/04/30 02:13:23;;;;;;;21.40;11.30;;;;;;;11.47;54.91;100638.47;10341586;28;20061;-76
2022/04/30 02:18:26;;;;;;;18.65;11.30;;;;;;;11.30;54.67;100629.72;10328313;28;20058;-76
2022/04/30 02:23:29;;;;;;;18.95;12.05;;;;;;;11.30;55.01;100628.88;10315776;28;20089;-76
2022/04/30 02:28:31;;;;;;;19.27;11.35;;;;;;;11.19;55.30;100631.22;10320798;28;20674;-76
2022/04/30 02:33:32;;;;;;;18.10;11.10;;;;;;;11.20;55.63;100625.88;10330952;28;20066;-76
2022/04/30 02:38:36;;;;;;;18.05;11.32;;;;;;;11.18;55.82;100619.88;10315775;28;20109;-76
2022/04/30 02:43:38;;;;;;;22.10;11.77;;;;;;;11.25;56.03;100617.81;10315401;28;20086;-76
2022/04/30 02:48:40;;;;;;;15.70;11.30;;;;;;;11.24;56.28;100614.31;10330715;28;20097;-76
2022/04/30 02:53:43;;;;;;;15.00;10.05;;;;;;;11.32;55.84;100614.78;10323291;28;20054;-76
2022/04/30 03:04:06;;;;;;;16.80;11.07;;;;;;;11.32;56.55;100618.34;10311255;28;20133;-76
2022/04/30 03:09:07;;;;;;;20.80;11.85;;;;;;;11.30;56.72;100614.00;10326397;28;20085;-76
2022/04/30 03:14:09;;;;;;;18.90;11.98;;;;;;;11.32;56.56;100601.69;10306772;28;20556;-76
2022/04/30 03:24:32;;;;;;;19.33;11.40;;;;;;;11.28;56.31;100597.53;10307004;28;20121;-76
2022/04/30 03:29:34;;;;;;;19.98;12.18;;;;;;;11.33;56.26;100592.06;10334702;28;20764;-76
2022/04/30 03:34:35;;;;;;;17.42;11.27;;;;;;;11.43;56.12;100582.78;10341498;28;20058;-76
2022/04/30 03:39:37;;;;;;;19.75;12.85;;;;;;;11.43;55.39;100587.19;10313693;28;20653;-76
2022/04/30 03:44:39;;;;;;;18.42;11.02;;;;;;;11.47;55.91;100588.72;10305753;28;20115;-76
2022/04/30 03:49:41;;;;;;;19.67;11.30;;;;;;;11.32;56.09;100580.72;10305456;28;20129;-76
2022/04/30 03:54:43;;;;;;;16.15;11.02;;;;;;;11.27;56.15;100582.72;10305222;28;20109;-76
2022/04/30 03:59:46;;;;;;;16.73;12.32;;;;;;;11.23;56.17;100583.81;10305815;28;20050;-76
2022/04/30 04:04:47;;;;;;;22.67;14.70;;;;;;;11.23;55.81;100578.56;10303372;28;20089;-76
2022/04/30 04:09:50;;;;;;;18.52;13.55;;;;;;;11.14;56.20;100584.31;10304593;28;20054;-76
2022/04/30 04:20:14;;;;;;;21.55;14.82;;;;;;;11.02;56.16;100598.00;10343899;28;20486;-76
2022/04/30 04:30:36;;;;;;;21.02;16.35;;;;;;;10.90;56.08;100593.38;10319059;28;20168;-76
2022/04/30 04:35:37;;;;;;;22.00;16.50;;;;;;;10.85;55.85;100605.00;10341441;28;20132;-76
2022/04/30 04:40:40;;;;;;;19.38;15.57;;;;;;;10.80;56.24;100612.25;10304100;28;20225;-76
2022/04/30 04:45:43;;;;;;;22.58;15.93;;;;;;;10.79;56.10;100616.63;10320920;28;20053;-76
2022/04/30 04:50:46;;;;;;;24.02;16.95;;;;;;;10.83;55.98;100622.53;10344195;28;20717;-76
2022/04/30 04:55:49;;;;;;;19.23;15.13;;;;;;;10.87;55.88;100619.69;10344031;28;20489;-76
2022/04/30 05:00:51;;;;;;;19.08;16.52;;;;;;;10.90;55.92;100618.69;10343848;28;20144;-76
2022/04/30 05:06:08;;;;;;;24.08;16.23;;;;;;;10.73;56.07;100632.63;10343823;28;20509;-76
2022/04/30 05:11:10;;;;;;;20.38;16.33;;;;;;;10.79;55.77;100632.31;10303351;28;20512;-76
2022/04/30 05:16:12;;;;;;;24.20;15.75;;;;;;;10.89;55.58;100633.53;10320601;28;20061;-76
2022/04/30 05:21:14;;;;;;;19.60;15.88;;;;;;;10.97;55.16;100631.41;10319815;28;20065;-76
2022/04/30 05:26:16;;;;;;;20.40;15.70;;;;;;;10.95;55.46;100630.63;10310971;28;20108;-76
2022/04/30 05:31:18;;;;;;;19.38;15.45;;;;;;;10.92;55.24;100641.25;10314035;28;20630;-76
2022/04/30 05:36:20;;;;;;;20.55;16.10;;;;;;;10.99;55.28;100640.00;10333855;28;20062;-76
2022/04/30 05:41:21;;;;;;;19.77;15.23;;;;;;;11.07;55.30;100637.06;10346822;28;20123;-76
2022/04/30 05:46:26;;;;;;;18.17;14.85;;;;;;;11.18;54.69;100640.81;10333840;28;20054;-76
2022/04/30 05:51:28;;;;;;;18.67;15.10;;;;;;;11.17;54.28;100638.28;10332872;28;20392;-76
2022/04/30 05:56:30;;;;;;;16.05;14.07;;;;;;;11.16;54.22;100637.44;10349457;28;20543;-76
2022/04/30 06:01:32;;;;;;;26.25;14.43;;;;;;;11.25;53.95;100651.84;10329413;28;20503;-76
2022/04/30 06:06:34;;;;;;;20.58;14.07;;;;;;;11.28;53.54;100652.53;10319195;28;20582;-76
2022/04/30 06:11:35;;;;;;;18.50;14.30;;;;;;;11.25;53.75;100650.03;10309629;28;20085;-76
2022/04/30 06:16:37;;;;;;;17.63;14.10;;;;;;;11.38;53.50;100659.91;10343261;28;20054;-76
2022/04/30 06:21:40;;;;;;;18.88;13.98;;;;;;;11.35;53.47;100668.78;10309031;28;20062;-76
2022/04/30 06:26:42;;;;;;;17.42;13.30;;;;;;;11.29;53.62;100664.66;10308032;28;20242;-76
2022/04/30 06:31:44;;;;;;;20.33;14.43;;;;;;;11.32;53.17;100659.28;10322848;28;20398;-76
2022/04/30 06:36:46;;;;;;;18.63;13.65;;;;;;;11.32;53.03;100666.28;10314517;28;20699;-76
2022/04/30 06:41:48;;;;;;;17.60;14.00;;;;;;;11.35;52.90;100670.53;10307152;28;20673;-76
2022/04/30 06:46:49;;;;;;;18.63;14.07;;;;;;;11.31;52.87;100672.47;10320033;28;20077;-76
2022/04/30 06:51:51;;;;;;;17.05;14.57;;;;;;;11.36;53.14;100677.47;10347954;28;20054;-76
2022/04/30 06:57:12;;;;;;;19.58;14.20;;;;;;;11.18;53.17;100687.94;10330533;28;20388;-77
2022/04/30 07:02:23;;;;;;;18.50;14.17;;;;;;;10.99;53.71;100679.28;10341030;28;20421;-77
2022/04/30 07:07:25;;;;;;;19.98;14.82;;;;;;;10.96;53.52;100681.22;10327062;28;20475;-76
2022/04/30 07:12:27;;;;;;;21.60;14.90;;;;;;;11.02;53.59;100687.00;10307462;28;20140;-76
2022/04/30 07:17:29;;;;;;;19.70;15.95;;;;;;;11.04;54.13;100694.78;10306643;28;20143;-77
2022/04/30 07:22:30;;;;;;;18.70;15.38;;;;;;;11.06;54.01;100688.56;10305941;28;20145;-77
2022/04/30 07:27:32;;;;;;;25.05;15.00;;;;;;;11.04;54.31;100702.66;10306430;28;20054;-77
2022/04/30 07:32:56;;;;;;;20.38;14.98;;;;;;;10.99;54.52;100702.00;10333329;28;20072;-77
2022/04/30 07:37:57;;;;;;;17.92;15.02;;;;;;;11.02;54.72;100705.31;10340489;28;20335;-76
2022/04/30 07:42:59;;;;;;;21.67;15.68;;;;;;;10.94;54.68;100707.47;10346767;28;20145;-77
2022/04/30 07:48:01;;;;;;;19.48;14.68;;;;;;;11.14;55.10;100704.75;10346628;28;20695;-76
2022/04/30 07:53:04;;;;;;;19.00;14.07;;;;;;;11.29;54.71;100706.56;10345697;28;20116;-76
2022/04/30 07:58:06;;;;;;;18.85;14.63;;;;;;;11.43;54.05;100703.28;10345594;28;20050;-76
2022/04/30 08:03:08;;;;;;;16.95;14.40;;;;;;;11.44;53.17;100706.75;10345425;28;20407;-77
2022/04/30 08:08:10;;;;;;;20.73;14.93;;;;;;;11.50;53.38;100717.72;10344115;28;20054;-76
2022/04/30 08:13:12;;;;;;;17.77;13.98;;;;;;;11.58;53.32;100709.50;10339269;28;20178;-76
2022/04/30 08:18:14;;;;;;;20.38;14.32;;;;;;;11.54;52.88;100708.78;10329459;28;20081;-76
2022/04/30 08:23:16;;;;;;;19.70;15.05;;;;;;;11.65;52.65;100714.34;10304541;28;20054;-77
2022/04/30 08:28:17;;;;;;;19.23;13.50;;;;;;;11.74;52.05;100716.50;10319720;28;21591;-77
2022/04/30 08:33:19;;;;;;;16.75;13.30;;;;;;;11.80;51.73;100715.31;10302745;28;20121;-76
2022/04/30 08:38:55;;;;;;;17.35;13.27;;;;;;;11.84;51.46;100720.34;10327923;28;20189;-76
2022/04/30 08:43:57;;;;;;;18.17;13.18;;;;;;;11.66;50.80;100716.00;10321667;28;20050;-76
2022/04/30 08:48:59;;;;;;;16.05;13.60;;;;;;;11.41;51.19;100718.22;10304870;28;20058;-76
2022/04/30 08:54:02;;;;;;;16.27;12.60;;;;;;;11.38;51.28;100720.16;10317299;28;20105;-76
2022/04/30 08:59:07;;;;;;;15.80;12.25;;;;;;;11.35;50.78;100720.28;10330584;28;20100;-77
2022/04/30 09:04:15;;;;;;;15.15;12.52;;;;;;;11.53;50.94;100720.22;10353032;28;20064;-76
2022/04/30 09:09:26;;;;;;;15.75;12.32;;;;;;;11.61;50.65;100717.19;10353244;28;20145;-77
2022/04/30 09:14:28;;;;;;;14.18;11.05;;;;;;;11.59;50.29;100719.03;10315390;28;20508;-76
2022/04/30 09:19:29;;;;;;;14.23;11.95;;;;;;;11.84;50.18;100715.09;10339242;28;20054;-77
2022/04/30 09:24:31;;;;;;;14.18;11.20;;;;;;;11.88;49.62;100714.00;10315634;28;20544;-76
2022/04/30 09:29:34;;;;;;;13.88;11.52;;;;;;;11.80;49.35;100715.31;10315200;28;20504;-76
2022/04/30 09:40:01;;;;;;;14.07;10.93;;;;;;;11.85;49.32;100711.53;10353977;28;20057;-76
2022/04/30 09:45:03;;;;;;;16.45;11.68;;;;;;;12.18;48.53;100714.13;10355170;28;20081;-77
2022/04/30 09:55:29;;;;;;;14.35;10.95;;;;;;;12.29;48.94;100700.47;10356507;28;20288;-76
2022/04/30 10:00:33;;;;;;;13.10;10.38;;;;;;;12.48;48.30;100707.22;10353829;28;20057;-76
2022/04/30 10:05:38;;;;;;;12.65;10.63;;;;;;;12.59;48.08;100706.66;10349648;28;20133;-76
2022/04/30 10:10:51;;;;;;;14.57;10.88;;;;;;;12.62;47.87;100699.44;10349700;28;20144;-76
2022/04/30 10:15:54;;;;;;;15.77;10.60;;;;;;;12.49;47.88;100698.44;10349960;28;20085;-76
2022/04/30 10:20:59;;;;;;;14.00;10.60;;;;;;;12.52;47.94;100711.38;10317257;28;20058;-76
2022/04/30 10:26:07;;;;;;;12.30;10.30;;;;;;;12.54;47.35;100696.41;10328402;28;20115;-76
2022/04/30 10:31:10;;;;;;;14.10;9.40;;;;;;;12.57;47.75;100695.38;10348563;28;20058;-76
2022/04/30 10:36:12;;;;;;;13.43;9.85;;;;;;;12.44;47.81;100699.59;10342216;28;20646;-76
2022/04/30 10:41:14;;;;;;;17.73;10.20;;;;;;;12.33;47.87;100688.88;10308599;28;20309;-76
2022/04/30 10:46:22;;;;;;;16.75;10.43;;;;;;;12.25;47.87;100696.28;10307839;28;20463;-76
2022/04/30 10:51:44;;;;;;;13.40;9.48;;;;;;;12.14;48.33;100687.22;10308097;28;20078;-77
2022/04/30 10:56:46;;;;;;;12.30;8.68;;;;;;;12.23;48.01;100696.38;10315312;28;20547;-76
2022/04/30 11:01:49;;;;;;;14.15;8.77;;;;;;;12.15;48.03;100690.69;10347899;28;20049;-76
2022/04/30 11:06:53;;;;;;;13.25;8.82;;;;;;;12.21;47.77;100692.16;10347736;28;20329;-76
2022/04/30 11:11:56;;;;;;;10.93;8.98;;;;;;;11.99;47.91;100684.56;10347500;28;20046;-76
2022/04/30 11:16:58;;;;;;;13.82;8.38;;;;;;;11.96;48.26;100679.50;10347019;28;20582;-76
2022/04/30 11:22:00;;;;;;;17.25;9.43;;;;;;;12.06;48.09;100678.94;10306695;28;20700;-77
2022/04/30 11:27:10;;;;;;;12.07;8.70;;;;;;;12.05;48.03;100679.84;10325317;28;20605;-76
2022/04/30 11:32:20;;;;;;;12.33;8.60;;;;;;;12.04;48.08;100674.69;10330471;28;20563;-76
2022/04/30 11:37:23;;;;;;;13.48;9.00;;;;;;;11.88;48.23;100664.19;10330790;28;20425;-76
2022/04/30 11:42:25;;;;;;;13.20;9.40;;;;;;;11.98;48.17;100664.53;10339120;28;20053;-76
2022/04/30 11:47:27;;;;;;;11.85;8.70;;;;;;;12.03;48.38;100670.38;10346084;28;20062;-76
2022/04/30 11:52:29;;;;;;;20.35;8.90;;;;;;;12.20;47.90;100665.06;10345413;28;20069;-76
2022/04/30 11:57:32;;;;;;;11.40;8.00;;;;;;;12.12;47.86;100662.88;10318093;28;20061;-77
2022/04/30 12:02:37;;;;;;;11.35;8.30;;;;;;;12.21;47.97;100661.53;10305436;28;20137;-76
2022/04/30 12:07:42;;;;;;;14.25;7.95;;;;;;;12.33;47.88;100660.88;10315748;28;20538;-76
2022/04/30 12:12:44;;;;;;;12.55;8.10;;;;;;;12.36;47.80;100655.44;10345502;28;20096;-76
2022/04/30 12:24:40;;;;;;;14.38;7.57;;;;;;;12.44;47.28;100650.63;10344890;28;21097;-76
2022/04/30 12:28:30;;;;;;;13.02;7.35;;;;;;;12.50;47.20;100641.56;10313015;28;20796;-76
2022/04/30 12:33:42;;;;;;;12.32;7.20;;;;;;;12.79;46.92;100636.34;10302857;28;20205;-76
2022/04/30 12:38:57;;;;;;;10.65;7.25;;;;;;;12.94;46.55;100632.00;10330689;28;20069;-76
2022/04/30 12:43:58;;;;;;;10.65;6.88;;;;;;;12.91;46.56;100633.00;10343044;28;20496;-77
2022/04/30 12:49:00;;;;;;;10.60;6.63;;;;;;;13.03;45.88;100625.38;10344147;28;20053;-76
2022/04/30 12:54:02;;;;;;;12.93;6.30;;;;;;;13.12;45.96;100625.66;10344679;28;20327;-76
2022/04/30 12:59:04;;;;;;;11.95;6.80;;;;;;;13.17;45.46;100612.25;10343325;28;20504;-77
2022/04/30 13:04:09;;;;;;;9.07;6.38;;;;;;;13.38;45.47;100606.56;10344149;28;20140;-76
2022/04/30 13:14:31;;;;;;;9.85;6.32;;;;;;;13.65;44.85;100601.44;10320177;28;20112;-76
2022/04/30 13:19:33;;;;;;;10.85;6.70;;;;;;;13.77;43.86;100595.41;10343782;28;20147;-76
2022/04/30 13:24:35;;;;;;;12.50;6.63;;;;;;;13.82;43.85;100593.31;10342715;28;20641;-77
2022/04/30 13:29:37;;;;;;;9.80;6.38;;;;;;;13.50;43.93;100594.47;10303786;28;20125;-76
2022/04/30 13:34:39;;;;;;;10.57;6.68;;;;;;;13.51;44.17;100589.16;10302628;28;20508;-76
2022/04/30 13:39:40;;;;;;;9.73;6.07;;;;;;;13.51;44.31;100585.66;10342178;28;20817;-76
2022/04/30 13:44:43;;;;;;;11.07;5.82;;;;;;;13.54;44.43;100577.56;10350732;28;20717;-77
2022/04/30 13:49:44;;;;;;;12.07;6.38;;;;;;;13.60;43.57;100577.19;10350303;28;20092;-77
2022/04/30 13:54:48;;;;;;;11.48;5.45;;;;;;;13.64;44.54;100576.06;10349965;28;20160;-77
2022/04/30 13:59:49;;;;;;;11.43;5.70;;;;;;;13.51;43.35;100570.75;10350249;28;20104;-77
2022/04/30 14:04:52;;;;;;;9.20;5.03;;;;;;;13.46;43.62;100569.31;10349488;28;20054;-76
2022/04/30 14:09:54;;;;;;;10.95;5.15;;;;;;;13.48;44.38;100564.81;10333329;28;20152;-76
2022/04/30 14:15:15;;;;;;;10.98;4.78;;;;;;;13.41;44.19;100563.50;10310133;28;20720;-76
2022/04/30 14:20:18;;;;;;;10.38;4.63;;;;;;;13.55;44.00;100558.25;10309762;28;20121;-76
2022/04/30 14:25:21;;;;;;;8.95;4.60;;;;;;;13.71;43.57;100559.00;10313805;28;20447;-77
2022/04/30 14:30:22;;;;;;;9.00;4.78;;;;;;;13.98;43.43;100554.63;10349045;28;20050;-76
2022/04/30 14:35:24;;;;;;;9.55;5.18;;;;;;;13.93;44.43;100554.06;10340473;28;20156;-76
2022/04/30 14:40:28;;;;;;;8.35;5.20;;;;;;;13.92;44.30;100556.78;10308524;28;20357;-77
2022/04/30 14:45:30;;;;;;;8.05;5.00;;;;;;;14.04;43.85;100548.97;10306836;28;20154;-77
2022/04/30 14:50:32;;;;;;;10.35;6.07;;;;;;;14.24;44.84;100551.16;10306228;28;20126;-77
2022/04/30 14:55:34;;;;;;;11.18;9.18;;;;;;;13.89;46.18;100547.31;10308154;28;20697;-77
2022/04/30 15:00:37;;;;;;;13.70;9.15;;;;;;;13.40;47.01;100548.66;10306289;28;20468;-77
2022/04/30 15:05:38;;;;;;;12.80;9.88;;;;;;;13.17;47.49;100554.47;10333801;28;20104;-77
2022/04/30 15:10:40;;;;;;;13.98;10.30;;;;;;;13.03;49.09;100557.09;10318441;28;20554;-76
2022/04/30 15:15:42;;;;;;;17.65;11.55;;;;;;;12.94;49.84;100553.22;10347300;28;20423;-76
2022/04/30 15:20:44;;;;;;;13.93;11.25;;;;;;;12.85;50.45;100549.38;10347079;28;20112;-77
2022/04/30 15:25:48;;;;;;;16.88;10.95;;;;;;;12.76;50.07;100552.53;10336335;28;20416;-77
2022/04/30 15:30:50;;;;;;;15.63;12.38;;;;;;;12.65;50.88;100557.56;10306330;28;20113;-77
2022/04/30 15:35:52;;;;;;;16.50;12.00;;;;;;;12.36;51.30;100565.41;10309847;28;20524;-77
2022/04/30 15:40:54;;;;;;;14.20;10.98;;;;;;;12.28;51.61;100568.47;10339415;28;20050;-77
2022/04/30 15:45:56;;;;;;;16.25;11.25;;;;;;;12.32;51.46;100564.75;10339298;28;20101;-76
2022/04/30 15:56:20;;;;;;;16.63;11.45;;;;;;;11.95;52.06;100559.84;10346480;28;20089;-76
2022/04/30 16:01:26;;;;;;;14.00;11.35;;;;;;;12.10;52.68;100559.00;10328021;28;20340;-76
2022/04/30 16:06:28;;;;;;;17.85;10.38;;;;;;;12.29;51.79;100559.69;10314887;28;20415;-76
2022/04/30 16:11:34;;;;;;;15.20;11.18;;;;;;;12.40;52.07;100554.66;10321790;28;20169;-76
2022/04/30 16:16:36;;;;;;;17.30;11.77;;;;;;;12.31;52.30;100556.97;10345157;28;20431;-77
2022/04/30 16:21:38;;;;;;;16.20;11.85;;;;;;;12.41;52.04;100555.53;10344858;28;20628;-77
2022/04/30 16:26:40;;;;;;;17.25;12.02;;;;;;;12.46;52.27;100550.84;10344879;28;20462;-77
2022/04/30 16:31:42;;;;;;;15.98;10.27;;;;;;;12.55;51.95;100555.56;10341917;28;20598;-77
2022/04/30 16:36:44;;;;;;;14.50;11.10;;;;;;;12.54;51.99;100546.00;10330942;28;20159;-77
2022/04/30 16:41:46;;;;;;;15.02;10.82;;;;;;;12.48;51.66;100539.31;10304028;28;20156;-76
2022/04/30 16:46:48;;;;;;;16.58;10.60;;;;;;;12.31;52.01;100546.50;10345091;28;20104;-76
2022/04/30 16:57:11;;;;;;;14.15;10.93;;;;;;;12.04;52.29;100543.63;10317837;28;20599;-76
2022/04/30 17:02:14;;;;;;;16.65;11.13;;;;;;;12.20;52.70;100546.22;10302219;28;20061;-77
2022/04/30 17:07:17;;;;;;;12.45;10.63;;;;;;;12.21;52.74;100538.28;10304098;28;20842;-76
2022/04/30 17:12:19;;;;;;;15.10;10.57;;;;;;;12.33;52.09;100534.97;10320966;28;20053;-77
2022/04/30 17:17:22;;;;;;;15.98;10.43;;;;;;;12.31;51.94;100531.59;10311647;28;20094;-77
2022/04/30 17:22:24;;;;;;;13.23;9.82;;;;;;;12.32;51.50;100532.41;10311803;28;20580;-76
2022/04/30 17:27:27;;;;;;;12.77;9.30;;;;;;;12.32;51.20;100533.28;10310052;28;20097;-76
2022/04/30 17:37:58;;;;;;;13.27;9.23;;;;;;;12.34;50.90;100535.81;10330759;28;20135;-77
2022/04/30 17:43:00;;;;;;;14.02;9.55;;;;;;;12.22;51.53;100537.31;10350868;28;20077;-77
2022/04/30 17:48:05;;;;;;;14.50;9.00;;;;;;;12.28;52.22;100537.00;10344132;28;20094;-77
2022/04/30 17:53:09;;;;;;;11.50;9.30;;;;;;;12.38;51.91;100532.06;10327620;28;20054;-76
2022/04/30 17:58:12;;;;;;;13.35;9.20;;;;;;;12.42;51.85;100533.59;10328819;28;20488;-77
2022/04/30 18:03:15;;;;;;;14.07;9.07;;;;;;;12.43;52.24;100530.91;10329676;28;20050;-76
2022/04/30 18:08:17;;;;;;;14.95;10.27;;;;;;;12.32;51.77;100537.66;10308198;28;20109;-76
2022/04/30 18:13:19;;;;;;;12.60;9.75;;;;;;;12.31;52.24;100542.09;10308420;28;20191;-77
2022/04/30 18:18:21;;;;;;;14.15;9.85;;;;;;;12.31;52.33;100542.09;10332458;28;20046;-76
2022/04/30 18:23:23;;;;;;;11.93;9.68;;;;;;;12.31;52.60;100547.34;10347999;28;20058;-76
2022/04/30 18:28:24;;;;;;;15.30;10.18;;;;;;;12.25;53.21;100554.66;10347614;28;20799;-76
2022/04/30 18:33:27;;;;;;;14.95;10.80;;;;;;;12.13;53.65;100559.66;10322213;28;20141;-76
2022/04/30 18:38:28;;;;;;;14.25;10.60;;;;;;;12.06;54.13;100562.72;10320022;28;20097;-76
2022/04/30 18:43:30;;;;;;;15.77;12.18;;;;;;;11.98;54.15;100567.53;10331583;28;21040;-77
2022/04/30 18:48:33;;;;;;;16.05;12.43;;;;;;;11.94;54.70;100573.88;10308207;28;20125;-76
2022/04/30 18:53:35;;;;;;;16.33;13.73;;;;;;;11.87;54.87;100573.38;10307721;28;20459;-77
2022/04/30 19:03:57;;;;;;;15.53;10.90;;;;;;;11.74;55.41;100582.84;10317878;28;20140;-77
2022/04/30 19:08:59;;;;;;;17.83;10.75;;;;;;;11.71;55.64;100593.47;10306010;28;20121;-77
2022/04/30 19:14:06;;;;;;;12.02;9.70;;;;;;;11.67;55.73;100591.09;10305889;28;20204;-77
2022/04/30 19:19:07;;;;;;;13.95;9.57;;;;;;;11.64;55.95;100591.28;10345655;28;20499;-77
2022/04/30 19:24:09;;;;;;;22.83;17.33;;;;;;;11.59;56.02;100585.44;10346698;28;20092;-77
2022/04/30 19:29:13;;;;;;;16.23;13.45;;;;;;;11.55;55.97;100586.53;10321141;28;20333;-77
2022/04/30 19:34:15;;;;;;;16.90;12.10;;;;;;;11.50;56.33;100588.56;10306374;28;20093;-77
2022/04/30 19:39:19;;;;;;;13.70;10.48;;;;;;;11.45;56.54;100598.41;10337613;28;20140;-77
2022/04/30 19:44:21;;;;;;;14.80;12.23;;;;;;;11.43;56.62;100592.41;10327691;28;20565;-77
2022/04/30 19:49:22;;;;;;;14.02;12.05;;;;;;;11.41;56.69;100594.28;10305606;28;20619;-77
2022/04/30 19:54:24;;;;;;;15.52;11.48;;;;;;;11.38;56.75;100602.31;10345302;28;20153;-77
2022/04/30 19:59:26;;;;;;;13.45;11.68;;;;;;;11.38;57.13;100604.91;10344440;28;20051;-77
2022/04/30 20:04:28;;;;;;;14.63;11.00;;;;;;;11.36;56.90;100597.13;10314696;28;20195;-77
2022/04/30 20:09:31;;;;;;;13.43;11.15;;;;;;;11.28;57.29;100597.53;10304797;28;20372;-76
2022/04/30 20:19:53;;;;;;;15.93;10.23;;;;;;;11.20;57.54;100601.47;10335185;28;20050;-76
2022/04/30 20:24:56;;;;;;;14.45;10.05;;;;;;;11.17;57.40;100602.47;10322090;28;20385;-77
2022/04/30 20:29:58;;;;;;;12.40;10.40;;;;;;;11.08;57.76;100597.72;10308421;28;20054;-76
2022/04/30 20:36:39;;;;;;;12.15;10.23;;;;;;;11.12;57.94;100601.88;10304615;28;20065;-77
2022/04/30 20:40:53;;;;;;;12.90;10.45;;;;;;;11.11;57.83;100599.34;10309256;28;20057;-77
2022/04/30 20:45:55;;;;;;;12.32;10.15;;;;;;;11.08;58.03;100597.72;10309965;28;20512;-76
2022/04/30 20:50:57;;;;;;;11.80;9.43;;;;;;;11.10;58.23;100598.47;10304023;28;20137;-77
2022/04/30 20:55:58;;;;;;;12.45;10.45;;;;;;;11.05;58.27;100597.84;10302457;28;20108;-77
2022/04/30 21:01:00;;;;;;;13.40;9.75;;;;;;;10.99;58.44;100595.53;10339372;28;20535;-77
2022/04/30 21:06:03;;;;;;;14.80;10.75;;;;;;;11.01;58.37;100588.44;10305608;28;20541;-76
2022/04/30 21:11:06;;;;;;;13.73;9.75;;;;;;;10.95;58.46;100588.75;10327121;28;20081;-77
2022/04/30 21:16:08;;;;;;;12.25;9.68;;;;;;;10.92;58.56;100594.16;10343667;28;20089;-77
2022/04/30 21:21:32;;;;;;;17.45;12.32;;;;;;;10.87;58.89;100590.91;10327270;28;20046;-77
2022/04/30 21:26:37;;;;;;;14.57;11.10;;;;;;;10.84;59.09;100588.47;10331513;28;20329;-77
2022/04/30 21:31:39;;;;;;;13.60;10.27;;;;;;;10.83;59.23;100585.91;10300545;28;20062;-77
2022/04/30 21:36:41;;;;;;;12.68;10.20;;;;;;;10.79;59.20;100579.97;10327688;28;20209;-77
2022/04/30 21:41:56;;;;;;;13.82;11.00;;;;;;;10.75;59.24;100581.06;10330955;28;20488;-77
2022/04/30 21:46:58;;;;;;;16.02;10.75;;;;;;;10.76;59.30;100569.69;10342808;28;20854;-77
2022/04/30 21:51:59;;;;;;;11.75;10.55;;;;;;;10.78;59.29;100574.84;10342994;28;20050;-76
2022/04/30 22:02:21;;;;;;;13.83;10.97;;;;;;;10.70;59.34;100567.38;10309423;28;20096;-77
2022/04/30 22:07:24;;;;;;;13.48;10.52;;;;;;;10.73;59.41;100567.22;10310076;28;20061;-77
2022/04/30 22:12:25;;;;;;;14.38;10.55;;;;;;;10.68;59.47;100571.84;10308471;28;20073;-77
2022/04/30 22:17:28;;;;;;;13.63;10.50;;;;;;;10.68;59.55;100569.22;10312324;28;20089;-77
2022/04/30 22:22:30;;;;;;;16.73;10.73;;;;;;;10.68;59.44;100566.63;10349483;28;20049;-77
2022/04/30 22:27:31;;;;;;;14.35;10.73;;;;;;;10.64;59.64;100569.44;10337580;28;20160;-77
2022/04/30 22:32:33;;;;;;;15.73;11.93;;;;;;;10.52;59.92;100578.75;10308093;28;20141;-77
2022/04/30 22:37:35;;;;;;;14.68;11.00;;;;;;;10.43;60.04;100574.81;10325775;28;20471;-77
2022/04/30 22:42:54;;;;;;;13.52;10.95;;;;;;;10.47;60.17;100573.75;10311713;28;20459;-77
2022/04/30 22:47:56;;;;;;;14.60;11.10;;;;;;;10.44;60.31;100573.03;10336649;28;20464;-77
2022/04/30 22:52:58;;;;;;;14.05;11.15;;;;;;;10.44;60.31;100573.03;10348709;28;20049;-77
2022/04/30 22:58:00;;;;;;;15.68;10.50;;;;;;;10.41;60.14;100575.81;10330885;28;20058;-77
2022/04/30 23:03:02;;;;;;;15.25;10.52;;;;;;;10.40;60.04;100571.50;10347949;28;20180;-77
2022/04/30 23:08:04;;;;;;;13.93;9.88;;;;;;;10.42;60.12;100569.66;10347331;28;20088;-77
2022/04/30 23:18:27;;;;;;;14.88;10.80;;;;;;;10.36;60.31;100559.50;10331944;28;20057;-77
2022/04/30 23:23:29;;;;;;;13.18;10.50;;;;;;;10.31;60.39;100557.13;10346842;28;20459;-77
2022/04/30 23:28:30;;;;;;;14.45;10.27;;;;;;;10.28;60.50;100559.00;10341455;28;20160;-77
2022/04/30 23:33:32;;;;;;;12.38;10.35;;;;;;;10.27;60.29;100541.66;10304695;28;20090;-77
2022/04/30 23:38:34;;;;;;;13.07;10.77;;;;;;;10.20;60.39;100535.88;10330806;28;20576;-77
2022/04/30 23:43:36;;;;;;;14.10;10.85;;;;;;;10.17;60.32;100530.81;10344918;28;20161;-77
2022/04/30 23:48:38;;;;;;;15.05;11.50;;;;;;;10.12;60.39;100532.78;10345933;28;20136;-77
2022/04/30 23:53:40;;;;;;;14.60;11.32;;;;;;;10.03;60.59;100528.00;10338222;28;20813;-77
2022/04/30 23:58:42;;;;;;;12.75;10.52;;;;;;;9.94;60.73;100524.97;10322000;28;20119;-77
